sensor_id;sensor_type;location;lat;lon;timestamp;P1;durP1;ratioP1;P2;durP2;ratioP2
80219;SDS011;69535;37.974;23.708;2023-04-24T00:00:41;20.45;;;12.27;;
80219;SDS011;69535;37.974;23.708;2023-04-24T00:03:10;25.27;;;13.38;;
80219;SDS011;69535;37.974;23.708;2023-04-24T00:05:36;22.55;;;12.98;;
80219;SDS011;69535;37.974;23.708;2023-04-24T00:08:02;25.80;;;13.40;;
80219;SDS011;69535;37.974;23.708;2023-04-24T00:10:27;22.30;;;13.00;;
80219;SDS011;69535;37.974;23.708;2023-04-24T00:12:53;21.90;;;13.05;;
80219;SDS011;69535;37.974;23.708;2023-04-24T00:15:19;20.92;;;13.32;;
80219;SDS011;69535;37.974;23.708;2023-04-24T00:17:44;24.25;;;12.07;;
80219;SDS011;69535;37.974;23.708;2023-04-24T00:20:11;21.63;;;12.20;;
80219;SDS011;69535;37.974;23.708;2023-04-24T00:22:36;23.38;;;13.57;;
80219;SDS011;69535;37.974;23.708;2023-04-24T00:25:02;24.17;;;12.65;;
80219;SDS011;69535;37.974;23.708;2023-04-24T00:27:28;22.20;;;12.70;;
80219;SDS011;69535;37.974;23.708;2023-04-24T00:29:54;23.40;;;13.20;;
80219;SDS011;69535;37.974;23.708;2023-04-24T00:32:20;23.38;;;13.15;;
80219;SDS011;69535;37.974;23.708;2023-04-24T00:34:45;22.85;;;13.02;;
80219;SDS011;69535;37.974;23.708;2023-04-24T00:37:11;20.42;;;12.45;;
80219;SDS011;69535;37.974;23.708;2023-04-24T00:39:37;23.88;;;12.43;;
80219;SDS011;69535;37.974;23.708;2023-04-24T00:42:03;22.85;;;12.38;;
80219;SDS011;69535;37.974;23.708;2023-04-24T00:44:31;20.45;;;12.38;;
80219;SDS011;69535;37.974;23.708;2023-04-24T00:47:00;22.50;;;13.13;;
80219;SDS011;69535;37.974;23.708;2023-04-24T00:49:27;19.90;;;12.23;;
80219;SDS011;69535;37.974;23.708;2023-04-24T00:51:53;18.45;;;12.13;;
80219;SDS011;69535;37.974;23.708;2023-04-24T00:54:19;22.27;;;12.52;;
80219;SDS011;69535;37.974;23.708;2023-04-24T00:56:45;19.60;;;12.52;;
80219;SDS011;69535;37.974;23.708;2023-04-24T00:59:11;23.10;;;12.75;;
80219;SDS011;69535;37.974;23.708;2023-04-24T01:01:38;19.48;;;12.75;;
80219;SDS011;69535;37.974;23.708;2023-04-24T01:04:07;19.25;;;12.25;;
80219;SDS011;69535;37.974;23.708;2023-04-24T01:06:35;19.83;;;12.40;;
80219;SDS011;69535;37.974;23.708;2023-04-24T01:09:06;17.30;;;12.20;;
80219;SDS011;69535;37.974;23.708;2023-04-24T01:11:36;19.15;;;12.23;;
80219;SDS011;69535;37.974;23.708;2023-04-24T01:14:02;19.50;;;11.90;;
80219;SDS011;69535;37.974;23.708;2023-04-24T01:16:27;21.30;;;13.15;;
80219;SDS011;69535;37.974;23.708;2023-04-24T01:18:53;21.52;;;12.23;;
80219;SDS011;69535;37.974;23.708;2023-04-24T01:21:19;18.90;;;12.50;;
80219;SDS011;69535;37.974;23.708;2023-04-24T01:23:47;22.40;;;12.43;;
80219;SDS011;69535;37.974;23.708;2023-04-24T01:26:15;18.88;;;12.15;;
80219;SDS011;69535;37.974;23.708;2023-04-24T01:28:42;21.42;;;12.10;;
80219;SDS011;69535;37.974;23.708;2023-04-24T01:31:08;18.20;;;11.68;;
80219;SDS011;69535;37.974;23.708;2023-04-24T01:33:34;17.48;;;11.50;;
80219;SDS011;69535;37.974;23.708;2023-04-24T01:35:59;17.83;;;12.45;;
80219;SDS011;69535;37.974;23.708;2023-04-24T01:38:25;22.35;;;12.05;;
80219;SDS011;69535;37.974;23.708;2023-04-24T01:40:51;17.25;;;11.68;;
80219;SDS011;69535;37.974;23.708;2023-04-24T01:43:18;23.35;;;12.32;;
80219;SDS011;69535;37.974;23.708;2023-04-24T01:45:44;20.35;;;12.23;;
80219;SDS011;69535;37.974;23.708;2023-04-24T01:48:11;19.88;;;12.20;;
80219;SDS011;69535;37.974;23.708;2023-04-24T01:50:37;21.15;;;13.02;;
80219;SDS011;69535;37.974;23.708;2023-04-24T01:53:03;21.75;;;13.18;;
80219;SDS011;69535;37.974;23.708;2023-04-24T01:55:29;20.95;;;12.88;;
80219;SDS011;69535;37.974;23.708;2023-04-24T01:57:55;21.58;;;12.25;;
80219;SDS011;69535;37.974;23.708;2023-04-24T02:00:21;22.20;;;12.57;;
80219;SDS011;69535;37.974;23.708;2023-04-24T02:02:48;21.58;;;13.13;;
80219;SDS011;69535;37.974;23.708;2023-04-24T02:05:13;24.60;;;13.20;;
80219;SDS011;69535;37.974;23.708;2023-04-24T02:07:39;26.15;;;13.05;;
80219;SDS011;69535;37.974;23.708;2023-04-24T02:10:05;18.77;;;12.75;;
80219;SDS011;69535;37.974;23.708;2023-04-24T02:12:32;21.30;;;12.98;;
80219;SDS011;69535;37.974;23.708;2023-04-24T02:14:58;21.33;;;13.45;;
80219;SDS011;69535;37.974;23.708;2023-04-24T02:17:23;23.23;;;13.05;;
80219;SDS011;69535;37.974;23.708;2023-04-24T02:19:49;20.42;;;12.50;;
80219;SDS011;69535;37.974;23.708;2023-04-24T02:22:15;20.20;;;12.57;;
80219;SDS011;69535;37.974;23.708;2023-04-24T02:24:41;25.67;;;13.35;;
80219;SDS011;69535;37.974;23.708;2023-04-24T02:27:06;23.92;;;13.45;;
80219;SDS011;69535;37.974;23.708;2023-04-24T02:29:32;18.63;;;12.50;;
80219;SDS011;69535;37.974;23.708;2023-04-24T02:31:58;19.98;;;12.93;;
80219;SDS011;69535;37.974;23.708;2023-04-24T02:34:24;20.80;;;11.98;;
80219;SDS011;69535;37.974;23.708;2023-04-24T02:36:50;22.35;;;12.70;;
80219;SDS011;69535;37.974;23.708;2023-04-24T02:39:15;19.30;;;12.63;;
80219;SDS011;69535;37.974;23.708;2023-04-24T02:41:42;21.42;;;12.45;;
80219;SDS011;69535;37.974;23.708;2023-04-24T02:44:08;20.13;;;12.85;;
80219;SDS011;69535;37.974;23.708;2023-04-24T02:46:33;21.17;;;13.18;;
80219;SDS011;69535;37.974;23.708;2023-04-24T02:48:59;22.08;;;12.32;;
80219;SDS011;69535;37.974;23.708;2023-04-24T02:51:25;20.00;;;12.38;;
80219;SDS011;69535;37.974;23.708;2023-04-24T02:53:51;19.98;;;12.48;;
80219;SDS011;69535;37.974;23.708;2023-04-24T02:56:17;17.80;;;12.43;;
80219;SDS011;69535;37.974;23.708;2023-04-24T02:58:43;18.90;;;12.50;;
80219;SDS011;69535;37.974;23.708;2023-04-24T03:01:09;20.60;;;12.73;;
80219;SDS011;69535;37.974;23.708;2023-04-24T03:03:35;21.95;;;12.07;;
80219;SDS011;69535;37.974;23.708;2023-04-24T03:06:01;22.65;;;12.68;;
80219;SDS011;69535;37.974;23.708;2023-04-24T03:08:27;20.92;;;12.70;;
80219;SDS011;69535;37.974;23.708;2023-04-24T03:10:53;20.65;;;13.02;;
80219;SDS011;69535;37.974;23.708;2023-04-24T03:13:18;22.92;;;13.38;;
80219;SDS011;69535;37.974;23.708;2023-04-24T03:15:44;19.30;;;12.20;;
80219;SDS011;69535;37.974;23.708;2023-04-24T03:18:11;21.40;;;12.50;;
80219;SDS011;69535;37.974;23.708;2023-04-24T03:20:37;23.65;;;12.65;;
80219;SDS011;69535;37.974;23.708;2023-04-24T03:23:03;17.38;;;11.93;;
80219;SDS011;69535;37.974;23.708;2023-04-24T03:25:29;18.65;;;12.15;;
80219;SDS011;69535;37.974;23.708;2023-04-24T03:27:55;20.58;;;12.30;;
80219;SDS011;69535;37.974;23.708;2023-04-24T03:30:20;21.20;;;12.68;;
80219;SDS011;69535;37.974;23.708;2023-04-24T03:32:46;19.80;;;13.20;;
80219;SDS011;69535;37.974;23.708;2023-04-24T03:35:12;20.75;;;12.48;;
80219;SDS011;69535;37.974;23.708;2023-04-24T03:37:38;24.33;;;12.15;;
80219;SDS011;69535;37.974;23.708;2023-04-24T03:40:04;33.33;;;11.75;;
80219;SDS011;69535;37.974;23.708;2023-04-24T03:42:31;23.77;;;12.13;;
80219;SDS011;69535;37.974;23.708;2023-04-24T03:44:57;25.30;;;11.88;;
80219;SDS011;69535;37.974;23.708;2023-04-24T03:47:22;21.30;;;11.93;;
80219;SDS011;69535;37.974;23.708;2023-04-24T03:49:48;27.05;;;12.13;;
80219;SDS011;69535;37.974;23.708;2023-04-24T03:52:14;31.50;;;12.45;;
80219;SDS011;69535;37.974;23.708;2023-04-24T03:54:39;27.73;;;11.70;;
80219;SDS011;69535;37.974;23.708;2023-04-24T03:57:05;22.17;;;11.57;;
80219;SDS011;69535;37.974;23.708;2023-04-24T03:59:31;20.20;;;11.63;;
80219;SDS011;69535;37.974;23.708;2023-04-24T04:01:56;23.05;;;10.95;;
80219;SDS011;69535;37.974;23.708;2023-04-24T04:04:22;22.73;;;10.65;;
80219;SDS011;69535;37.974;23.708;2023-04-24T04:06:48;22.55;;;11.35;;
80219;SDS011;69535;37.974;23.708;2023-04-24T04:09:14;23.60;;;11.88;;
80219;SDS011;69535;37.974;23.708;2023-04-24T04:11:40;20.08;;;11.65;;
80219;SDS011;69535;37.974;23.708;2023-04-24T04:14:05;22.52;;;11.05;;
80219;SDS011;69535;37.974;23.708;2023-04-24T04:16:31;23.23;;;11.50;;
80219;SDS011;69535;37.974;23.708;2023-04-24T04:18:57;21.23;;;11.73;;
80219;SDS011;69535;37.974;23.708;2023-04-24T04:21:23;27.30;;;11.75;;
80219;SDS011;69535;37.974;23.708;2023-04-24T04:23:49;22.60;;;11.18;;
80219;SDS011;69535;37.974;23.708;2023-04-24T04:26:15;21.95;;;12.23;;
80219;SDS011;69535;37.974;23.708;2023-04-24T04:28:41;21.75;;;11.85;;
80219;SDS011;69535;37.974;23.708;2023-04-24T04:31:06;21.50;;;12.30;;
80219;SDS011;69535;37.974;23.708;2023-04-24T04:33:33;24.58;;;12.10;;
80219;SDS011;69535;37.974;23.708;2023-04-24T04:35:59;22.70;;;11.38;;
80219;SDS011;69535;37.974;23.708;2023-04-24T04:38:25;24.83;;;12.05;;
80219;SDS011;69535;37.974;23.708;2023-04-24T04:40:55;26.33;;;12.57;;
80219;SDS011;69535;37.974;23.708;2023-04-24T04:43:23;27.92;;;12.70;;
80219;SDS011;69535;37.974;23.708;2023-04-24T04:45:50;24.40;;;11.95;;
80219;SDS011;69535;37.974;23.708;2023-04-24T04:48:16;19.58;;;12.10;;
80219;SDS011;69535;37.974;23.708;2023-04-24T04:50:43;20.33;;;11.88;;
80219;SDS011;69535;37.974;23.708;2023-04-24T04:53:09;21.63;;;11.63;;
80219;SDS011;69535;37.974;23.708;2023-04-24T04:55:36;21.67;;;12.00;;
80219;SDS011;69535;37.974;23.708;2023-04-24T04:58:02;22.50;;;11.50;;
80219;SDS011;69535;37.974;23.708;2023-04-24T05:00:28;17.45;;;11.98;;
80219;SDS011;69535;37.974;23.708;2023-04-24T05:03:00;18.00;;;11.23;;
80219;SDS011;69535;37.974;23.708;2023-04-24T05:05:26;19.90;;;10.90;;
80219;SDS011;69535;37.974;23.708;2023-04-24T05:07:52;24.65;;;11.35;;
80219;SDS011;69535;37.974;23.708;2023-04-24T05:10:18;24.02;;;11.82;;
80219;SDS011;69535;37.974;23.708;2023-04-24T05:12:43;26.50;;;11.50;;
80219;SDS011;69535;37.974;23.708;2023-04-24T05:15:09;17.80;;;10.88;;
80219;SDS011;69535;37.974;23.708;2023-04-24T05:17:35;17.85;;;10.90;;
80219;SDS011;69535;37.974;23.708;2023-04-24T05:20:02;22.58;;;11.50;;
80219;SDS011;69535;37.974;23.708;2023-04-24T05:22:30;24.13;;;11.70;;
80219;SDS011;69535;37.974;23.708;2023-04-24T05:24:56;21.00;;;11.20;;
80219;SDS011;69535;37.974;23.708;2023-04-24T05:27:22;23.02;;;11.70;;
80219;SDS011;69535;37.974;23.708;2023-04-24T05:29:49;19.65;;;10.45;;
80219;SDS011;69535;37.974;23.708;2023-04-24T05:32:15;17.33;;;10.13;;
80219;SDS011;69535;37.974;23.708;2023-04-24T05:34:41;22.23;;;9.98;;
80219;SDS011;69535;37.974;23.708;2023-04-24T05:37:06;15.52;;;9.15;;
80219;SDS011;69535;37.974;23.708;2023-04-24T05:39:34;14.55;;;8.95;;
80219;SDS011;69535;37.974;23.708;2023-04-24T05:42:00;15.52;;;8.63;;
80219;SDS011;69535;37.974;23.708;2023-04-24T05:44:26;15.57;;;8.98;;
80219;SDS011;69535;37.974;23.708;2023-04-24T05:46:52;16.42;;;9.35;;
80219;SDS011;69535;37.974;23.708;2023-04-24T05:49:20;15.05;;;8.68;;
80219;SDS011;69535;37.974;23.708;2023-04-24T05:51:45;14.02;;;8.30;;
80219;SDS011;69535;37.974;23.708;2023-04-24T05:54:11;13.55;;;7.65;;
80219;SDS011;69535;37.974;23.708;2023-04-24T05:56:37;12.52;;;8.07;;
80219;SDS011;69535;37.974;23.708;2023-04-24T05:59:03;13.95;;;8.60;;
80219;SDS011;69535;37.974;23.708;2023-04-24T06:01:29;14.82;;;8.35;;
80219;SDS011;69535;37.974;23.708;2023-04-24T06:03:56;14.95;;;7.90;;
80219;SDS011;69535;37.974;23.708;2023-04-24T06:06:23;11.57;;;7.10;;
80219;SDS011;69535;37.974;23.708;2023-04-24T06:08:49;14.15;;;7.03;;
80219;SDS011;69535;37.974;23.708;2023-04-24T06:11:15;13.82;;;8.02;;
80219;SDS011;69535;37.974;23.708;2023-04-24T06:13:40;14.25;;;7.18;;
80219;SDS011;69535;37.974;23.708;2023-04-24T06:16:06;13.15;;;6.97;;
80219;SDS011;69535;37.974;23.708;2023-04-24T06:18:32;10.00;;;6.20;;
80219;SDS011;69535;37.974;23.708;2023-04-24T06:20:58;10.75;;;6.28;;
80219;SDS011;69535;37.974;23.708;2023-04-24T06:23:24;8.15;;;6.07;;
80219;SDS011;69535;37.974;23.708;2023-04-24T06:25:50;8.00;;;6.07;;
80219;SDS011;69535;37.974;23.708;2023-04-24T06:28:16;11.27;;;6.75;;
80219;SDS011;69535;37.974;23.708;2023-04-24T06:30:42;8.90;;;5.70;;
80219;SDS011;69535;37.974;23.708;2023-04-24T06:33:08;8.15;;;5.63;;
80219;SDS011;69535;37.974;23.708;2023-04-24T06:35:34;8.95;;;5.25;;
80219;SDS011;69535;37.974;23.708;2023-04-24T06:38:00;7.97;;;5.80;;
80219;SDS011;69535;37.974;23.708;2023-04-24T06:40:26;7.30;;;5.45;;
80219;SDS011;69535;37.974;23.708;2023-04-24T06:42:52;8.80;;;5.30;;
80219;SDS011;69535;37.974;23.708;2023-04-24T06:45:18;6.30;;;5.35;;
80219;SDS011;69535;37.974;23.708;2023-04-24T06:47:44;7.85;;;4.95;;
80219;SDS011;69535;37.974;23.708;2023-04-24T06:50:09;7.20;;;4.65;;
80219;SDS011;69535;37.974;23.708;2023-04-24T06:52:36;7.88;;;5.10;;
80219;SDS011;69535;37.974;23.708;2023-04-24T06:55:02;9.93;;;4.53;;
80219;SDS011;69535;37.974;23.708;2023-04-24T06:57:29;6.03;;;4.57;;
80219;SDS011;69535;37.974;23.708;2023-04-24T06:59:55;6.45;;;4.60;;
80219;SDS011;69535;37.974;23.708;2023-04-24T07:02:20;7.78;;;4.50;;
80219;SDS011;69535;37.974;23.708;2023-04-24T07:04:46;7.43;;;4.63;;
80219;SDS011;69535;37.974;23.708;2023-04-24T07:07:13;9.88;;;4.35;;
80219;SDS011;69535;37.974;23.708;2023-04-24T07:09:39;13.52;;;4.70;;
80219;SDS011;69535;37.974;23.708;2023-04-24T07:12:09;6.07;;;4.10;;
80219;SDS011;69535;37.974;23.708;2023-04-24T07:14:38;9.07;;;4.18;;
80219;SDS011;69535;37.974;23.708;2023-04-24T07:17:04;10.32;;;4.82;;
80219;SDS011;69535;37.974;23.708;2023-04-24T07:19:31;8.65;;;4.50;;
80219;SDS011;69535;37.974;23.708;2023-04-24T07:21:58;7.47;;;4.70;;
80219;SDS011;69535;37.974;23.708;2023-04-24T07:24:24;7.43;;;4.72;;
80219;SDS011;69535;37.974;23.708;2023-04-24T07:26:50;8.38;;;4.40;;
80219;SDS011;69535;37.974;23.708;2023-04-24T07:29:17;8.63;;;4.28;;
80219;SDS011;69535;37.974;23.708;2023-04-24T07:31:43;6.65;;;4.32;;
80219;SDS011;69535;37.974;23.708;2023-04-24T07:34:09;7.45;;;4.30;;
80219;SDS011;69535;37.974;23.708;2023-04-24T07:36:35;4.97;;;3.85;;
80219;SDS011;69535;37.974;23.708;2023-04-24T07:39:01;6.35;;;4.22;;
80219;SDS011;69535;37.974;23.708;2023-04-24T07:41:26;8.50;;;3.90;;
80219;SDS011;69535;37.974;23.708;2023-04-24T07:43:53;6.38;;;3.85;;
80219;SDS011;69535;37.974;23.708;2023-04-24T07:46:19;10.07;;;4.07;;
80219;SDS011;69535;37.974;23.708;2023-04-24T07:48:45;6.50;;;3.65;;
80219;SDS011;69535;37.974;23.708;2023-04-24T07:51:13;5.55;;;3.63;;
80219;SDS011;69535;37.974;23.708;2023-04-24T07:53:39;5.43;;;3.63;;
80219;SDS011;69535;37.974;23.708;2023-04-24T07:56:05;5.70;;;3.97;;
80219;SDS011;69535;37.974;23.708;2023-04-24T07:58:31;6.18;;;3.72;;
80219;SDS011;69535;37.974;23.708;2023-04-24T08:00:57;5.05;;;3.83;;
80219;SDS011;69535;37.974;23.708;2023-04-24T08:03:23;5.10;;;3.92;;
80219;SDS011;69535;37.974;23.708;2023-04-24T08:05:49;5.00;;;3.70;;
80219;SDS011;69535;37.974;23.708;2023-04-24T08:08:16;4.43;;;3.50;;
80219;SDS011;69535;37.974;23.708;2023-04-24T08:10:42;5.35;;;3.72;;
80219;SDS011;69535;37.974;23.708;2023-04-24T08:13:07;7.70;;;4.03;;
80219;SDS011;69535;37.974;23.708;2023-04-24T08:15:33;4.20;;;3.70;;
80219;SDS011;69535;37.974;23.708;2023-04-24T08:17:59;3.95;;;3.53;;
80219;SDS011;69535;37.974;23.708;2023-04-24T08:20:25;7.03;;;3.88;;
80219;SDS011;69535;37.974;23.708;2023-04-24T08:22:51;5.18;;;3.90;;
80219;SDS011;69535;37.974;23.708;2023-04-24T08:25:16;5.40;;;3.78;;
80219;SDS011;69535;37.974;23.708;2023-04-24T08:27:44;8.95;;;4.35;;
80219;SDS011;69535;37.974;23.708;2023-04-24T08:30:10;5.35;;;3.80;;
80219;SDS011;69535;37.974;23.708;2023-04-24T08:32:36;6.38;;;4.10;;
80219;SDS011;69535;37.974;23.708;2023-04-24T08:35:02;6.43;;;4.25;;
80219;SDS011;69535;37.974;23.708;2023-04-24T08:37:28;5.35;;;3.75;;
80219;SDS011;69535;37.974;23.708;2023-04-24T08:39:54;4.32;;;3.55;;
80219;SDS011;69535;37.974;23.708;2023-04-24T08:42:20;6.28;;;3.47;;
80219;SDS011;69535;37.974;23.708;2023-04-24T08:44:46;7.70;;;3.80;;
80219;SDS011;69535;37.974;23.708;2023-04-24T08:47:14;7.43;;;3.97;;
80219;SDS011;69535;37.974;23.708;2023-04-24T08:49:40;10.18;;;4.15;;
80219;SDS011;69535;37.974;23.708;2023-04-24T08:52:07;5.00;;;3.78;;
80219;SDS011;69535;37.974;23.708;2023-04-24T08:54:34;7.50;;;3.72;;
80219;SDS011;69535;37.974;23.708;2023-04-24T08:57:01;7.60;;;4.00;;
80219;SDS011;69535;37.974;23.708;2023-04-24T08:59:29;8.45;;;4.38;;
80219;SDS011;69535;37.974;23.708;2023-04-24T09:01:55;7.85;;;3.70;;
80219;SDS011;69535;37.974;23.708;2023-04-24T09:04:22;6.47;;;4.10;;
80219;SDS011;69535;37.974;23.708;2023-04-24T09:06:50;6.60;;;3.78;;
80219;SDS011;69535;37.974;23.708;2023-04-24T09:09:17;7.00;;;4.13;;
80219;SDS011;69535;37.974;23.708;2023-04-24T09:11:43;11.02;;;4.10;;
80219;SDS011;69535;37.974;23.708;2023-04-24T09:14:10;6.15;;;4.00;;
80219;SDS011;69535;37.974;23.708;2023-04-24T09:16:35;7.43;;;3.78;;
80219;SDS011;69535;37.974;23.708;2023-04-24T09:19:01;5.25;;;3.90;;
80219;SDS011;69535;37.974;23.708;2023-04-24T09:21:31;4.75;;;3.72;;
80219;SDS011;69535;37.974;23.708;2023-04-24T09:23:59;8.57;;;3.83;;
80219;SDS011;69535;37.974;23.708;2023-04-24T09:26:29;6.13;;;3.83;;
80219;SDS011;69535;37.974;23.708;2023-04-24T09:28:59;5.28;;;3.60;;
80219;SDS011;69535;37.974;23.708;2023-04-24T09:31:26;8.80;;;3.60;;
80219;SDS011;69535;37.974;23.708;2023-04-24T09:33:54;4.72;;;3.70;;
80219;SDS011;69535;37.974;23.708;2023-04-24T09:36:33;4.40;;;3.47;;
80219;SDS011;69535;37.974;23.708;2023-04-24T09:39:12;5.32;;;3.83;;
80219;SDS011;69535;37.974;23.708;2023-04-24T09:41:48;5.57;;;3.70;;
80219;SDS011;69535;37.974;23.708;2023-04-24T09:44:16;4.40;;;3.33;;
80219;SDS011;69535;37.974;23.708;2023-04-24T09:49:23;4.95;;;3.50;;
80219;SDS011;69535;37.974;23.708;2023-04-24T09:51:49;4.68;;;3.53;;
80219;SDS011;69535;37.974;23.708;2023-04-24T09:56:43;4.57;;;3.60;;
80219;SDS011;69535;37.974;23.708;2023-04-24T09:59:10;4.25;;;3.78;;
80219;SDS011;69535;37.974;23.708;2023-04-24T10:01:36;5.88;;;3.55;;
80219;SDS011;69535;37.974;23.708;2023-04-24T10:04:03;5.05;;;3.60;;
80219;SDS011;69535;37.974;23.708;2023-04-24T10:06:31;5.82;;;3.60;;
80219;SDS011;69535;37.974;23.708;2023-04-24T10:08:59;4.47;;;3.72;;
80219;SDS011;69535;37.974;23.708;2023-04-24T10:11:29;4.13;;;3.50;;
80219;SDS011;69535;37.974;23.708;2023-04-24T10:13:55;5.35;;;3.47;;
80219;SDS011;69535;37.974;23.708;2023-04-24T10:16:22;6.40;;;3.63;;
80219;SDS011;69535;37.974;23.708;2023-04-24T10:18:49;3.83;;;3.13;;
80219;SDS011;69535;37.974;23.708;2023-04-24T10:21:18;3.50;;;3.20;;
80219;SDS011;69535;37.974;23.708;2023-04-24T10:23:45;5.88;;;3.72;;
80219;SDS011;69535;37.974;23.708;2023-04-24T10:26:14;6.32;;;3.72;;
80219;SDS011;69535;37.974;23.708;2023-04-24T10:28:46;3.90;;;3.47;;
80219;SDS011;69535;37.974;23.708;2023-04-24T10:31:12;5.40;;;3.78;;
80219;SDS011;69535;37.974;23.708;2023-04-24T10:33:42;4.95;;;3.85;;
80219;SDS011;69535;37.974;23.708;2023-04-24T10:36:11;8.35;;;3.50;;
80219;SDS011;69535;37.974;23.708;2023-04-24T10:38:39;5.85;;;3.50;;
80219;SDS011;69535;37.974;23.708;2023-04-24T10:41:10;5.30;;;3.40;;
80219;SDS011;69535;37.974;23.708;2023-04-24T10:43:41;6.15;;;3.60;;
80219;SDS011;69535;37.974;23.708;2023-04-24T10:46:08;5.70;;;3.70;;
80219;SDS011;69535;37.974;23.708;2023-04-24T10:48:41;4.63;;;3.65;;
80219;SDS011;69535;37.974;23.708;2023-04-24T10:51:10;4.75;;;4.20;;
80219;SDS011;69535;37.974;23.708;2023-04-24T10:53:38;5.40;;;3.65;;
80219;SDS011;69535;37.974;23.708;2023-04-24T10:58:38;4.90;;;3.80;;
80219;SDS011;69535;37.974;23.708;2023-04-24T11:01:05;5.85;;;3.65;;
80219;SDS011;69535;37.974;23.708;2023-04-24T11:03:32;6.00;;;3.80;;
80219;SDS011;69535;37.974;23.708;2023-04-24T11:08:38;5.25;;;3.65;;
80219;SDS011;69535;37.974;23.708;2023-04-24T11:11:12;6.75;;;3.75;;
80219;SDS011;69535;37.974;23.708;2023-04-24T11:16:21;5.72;;;4.20;;
80219;SDS011;69535;37.974;23.708;2023-04-24T11:19:06;5.30;;;3.97;;
80219;SDS011;69535;37.974;23.708;2023-04-24T11:24:48;5.88;;;3.88;;
80219;SDS011;69535;37.974;23.708;2023-04-24T11:27:16;4.40;;;3.65;;
80219;SDS011;69535;37.974;23.708;2023-04-24T11:35:26;5.05;;;3.78;;
80219;SDS011;69535;37.974;23.708;2023-04-24T11:37:43;4.13;;;3.53;;
80219;SDS011;69535;37.974;23.708;2023-04-24T11:40:17;4.75;;;3.80;;
80219;SDS011;69535;37.974;23.708;2023-04-24T11:42:48;4.90;;;3.70;;
80219;SDS011;69535;37.974;23.708;2023-04-24T11:45:16;4.90;;;3.85;;
80219;SDS011;69535;37.974;23.708;2023-04-24T11:47:47;4.20;;;3.53;;
80219;SDS011;69535;37.974;23.708;2023-04-24T11:50:14;6.53;;;3.85;;
80219;SDS011;69535;37.974;23.708;2023-04-24T11:52:44;5.55;;;4.22;;
80219;SDS011;69535;37.974;23.708;2023-04-24T11:57:39;8.73;;;4.15;;
80219;SDS011;69535;37.974;23.708;2023-04-24T12:00:14;4.90;;;3.90;;
80219;SDS011;69535;37.974;23.708;2023-04-24T12:02:46;7.43;;;4.43;;
80219;SDS011;69535;37.974;23.708;2023-04-24T12:07:48;5.43;;;3.80;;
80219;SDS011;69535;37.974;23.708;2023-04-24T12:10:19;4.60;;;3.85;;
80219;SDS011;69535;37.974;23.708;2023-04-24T12:12:49;4.30;;;3.83;;
80219;SDS011;69535;37.974;23.708;2023-04-24T12:15:16;8.45;;;3.70;;
80219;SDS011;69535;37.974;23.708;2023-04-24T12:17:43;5.10;;;3.80;;
80219;SDS011;69535;37.974;23.708;2023-04-24T12:20:10;3.72;;;3.38;;
80219;SDS011;69535;37.974;23.708;2023-04-24T12:22:55;4.10;;;3.70;;
80219;SDS011;69535;37.974;23.708;2023-04-24T12:25:23;6.00;;;3.70;;
80219;SDS011;69535;37.974;23.708;2023-04-24T12:27:54;4.20;;;3.45;;
80219;SDS011;69535;37.974;23.708;2023-04-24T12:30:43;4.30;;;3.50;;
80219;SDS011;69535;37.974;23.708;2023-04-24T12:33:10;3.88;;;3.22;;
80219;SDS011;69535;37.974;23.708;2023-04-24T12:35:36;4.22;;;3.50;;
80219;SDS011;69535;37.974;23.708;2023-04-24T12:38:05;5.97;;;3.30;;
80219;SDS011;69535;37.974;23.708;2023-04-24T12:40:33;4.80;;;3.28;;
80219;SDS011;69535;37.974;23.708;2023-04-24T12:42:58;7.07;;;3.55;;
80219;SDS011;69535;37.974;23.708;2023-04-24T12:45:24;3.63;;;3.22;;
80219;SDS011;69535;37.974;23.708;2023-04-24T12:47:50;4.80;;;3.50;;
80219;SDS011;69535;37.974;23.708;2023-04-24T12:50:16;5.85;;;3.60;;
80219;SDS011;69535;37.974;23.708;2023-04-24T12:52:42;4.63;;;3.20;;
80219;SDS011;69535;37.974;23.708;2023-04-24T12:55:08;7.57;;;3.63;;
80219;SDS011;69535;37.974;23.708;2023-04-24T12:57:36;6.20;;;3.55;;
80219;SDS011;69535;37.974;23.708;2023-04-24T13:00:03;5.47;;;3.70;;
80219;SDS011;69535;37.974;23.708;2023-04-24T13:02:30;5.50;;;3.63;;
80219;SDS011;69535;37.974;23.708;2023-04-24T13:04:56;4.65;;;3.30;;
80219;SDS011;69535;37.974;23.708;2023-04-24T13:07:25;6.82;;;3.78;;
80219;SDS011;69535;37.974;23.708;2023-04-24T13:09:52;5.43;;;3.42;;
80219;SDS011;69535;37.974;23.708;2023-04-24T13:12:19;6.57;;;3.40;;
80219;SDS011;69535;37.974;23.708;2023-04-24T13:14:45;5.60;;;3.50;;
80219;SDS011;69535;37.974;23.708;2023-04-24T13:17:11;7.65;;;3.70;;
80219;SDS011;69535;37.974;23.708;2023-04-24T13:19:41;4.88;;;3.58;;
80219;SDS011;69535;37.974;23.708;2023-04-24T13:22:09;8.60;;;3.30;;
80219;SDS011;69535;37.974;23.708;2023-04-24T13:24:35;3.75;;;3.28;;
80219;SDS011;69535;37.974;23.708;2023-04-24T13:27:02;3.55;;;3.25;;
80219;SDS011;69535;37.974;23.708;2023-04-24T13:29:28;4.60;;;3.33;;
80219;SDS011;69535;37.974;23.708;2023-04-24T13:31:54;10.18;;;3.40;;
80219;SDS011;69535;37.974;23.708;2023-04-24T13:34:23;9.32;;;3.28;;
80219;SDS011;69535;37.974;23.708;2023-04-24T13:36:53;5.35;;;3.10;;
80219;SDS011;69535;37.974;23.708;2023-04-24T13:39:21;5.43;;;3.10;;
80219;SDS011;69535;37.974;23.708;2023-04-24T13:41:47;5.00;;;3.25;;
80219;SDS011;69535;37.974;23.708;2023-04-24T13:44:13;4.00;;;3.20;;
80219;SDS011;69535;37.974;23.708;2023-04-24T13:46:40;5.22;;;3.00;;
80219;SDS011;69535;37.974;23.708;2023-04-24T13:49:07;6.03;;;3.00;;
80219;SDS011;69535;37.974;23.708;2023-04-24T13:51:33;4.15;;;2.95;;
80219;SDS011;69535;37.974;23.708;2023-04-24T13:53:58;3.30;;;3.00;;
80219;SDS011;69535;37.974;23.708;2023-04-24T13:56:24;4.57;;;3.10;;
80219;SDS011;69535;37.974;23.708;2023-04-24T13:58:51;3.55;;;2.85;;
80219;SDS011;69535;37.974;23.708;2023-04-24T14:01:17;3.25;;;2.70;;
80219;SDS011;69535;37.974;23.708;2023-04-24T14:03:42;4.97;;;3.00;;
80219;SDS011;69535;37.974;23.708;2023-04-24T14:06:08;5.18;;;3.15;;
80219;SDS011;69535;37.974;23.708;2023-04-24T14:08:34;5.63;;;3.13;;
80219;SDS011;69535;37.974;23.708;2023-04-24T14:11:00;3.17;;;2.88;;
80219;SDS011;69535;37.974;23.708;2023-04-24T14:13:25;3.30;;;3.00;;
80219;SDS011;69535;37.974;23.708;2023-04-24T14:15:52;4.55;;;2.97;;
80219;SDS011;69535;37.974;23.708;2023-04-24T14:18:18;4.65;;;3.10;;
80219;SDS011;69535;37.974;23.708;2023-04-24T14:20:44;4.38;;;3.20;;
80219;SDS011;69535;37.974;23.708;2023-04-24T14:23:10;5.03;;;3.40;;
80219;SDS011;69535;37.974;23.708;2023-04-24T14:25:36;4.53;;;3.08;;
80219;SDS011;69535;37.974;23.708;2023-04-24T14:28:01;4.70;;;3.25;;
80219;SDS011;69535;37.974;23.708;2023-04-24T14:30:27;4.22;;;3.28;;
80219;SDS011;69535;37.974;23.708;2023-04-24T14:32:53;3.75;;;3.10;;
80219;SDS011;69535;37.974;23.708;2023-04-24T14:35:19;4.25;;;3.15;;
80219;SDS011;69535;37.974;23.708;2023-04-24T14:37:44;5.05;;;3.30;;
80219;SDS011;69535;37.974;23.708;2023-04-24T14:40:10;4.22;;;3.30;;
80219;SDS011;69535;37.974;23.708;2023-04-24T14:42:36;4.35;;;3.22;;
80219;SDS011;69535;37.974;23.708;2023-04-24T14:45:02;3.53;;;3.15;;
80219;SDS011;69535;37.974;23.708;2023-04-24T14:47:28;3.40;;;3.10;;